createdAt,value
2023-03-26T00:06:37.270Z,994
2023-03-26T00:35:56.803Z,994
2023-03-26T01:04:55.822Z,993
2023-03-26T01:33:56.776Z,993
2023-03-26T02:02:52.263Z,992
2023-03-26T02:31:53.406Z,991
2023-03-26T03:00:53.804Z,991
2023-03-26T03:29:59.590Z,990
2023-03-26T03:59:16.389Z,990
2023-03-26T04:28:34.113Z,989
2023-03-26T04:57:35.035Z,988
2023-03-26T05:26:46.012Z,988
2023-03-26T05:55:59.094Z,987
2023-03-26T06:25:02.141Z,987
2023-03-26T06:54:05.144Z,987
2023-03-26T07:23:04.838Z,986
2023-03-26T07:52:10.019Z,986
2023-03-26T08:21:20.768Z,987
2023-03-26T08:50:30.848Z,987
2023-03-26T09:19:39.375Z,987
2023-03-26T09:48:59.597Z,987
2023-03-26T10:18:30.604Z,987
2023-03-26T10:47:11.635Z,987
2023-03-26T11:16:26.780Z,987
2023-03-26T11:45:42.217Z,986
2023-03-26T12:15:02.945Z,986
2023-03-26T12:44:58.453Z,986
2023-03-26T13:13:08.794Z,986
2023-03-26T13:42:24.175Z,986
2023-03-26T14:11:42.450Z,987
2023-03-26T14:40:55.847Z,987
2023-03-26T15:09:52.866Z,987
2023-03-26T15:39:04.813Z,987
2023-03-26T16:08:19.905Z,987
2023-03-26T16:37:32.713Z,987
2023-03-26T17:06:47.776Z,987
2023-03-26T17:36:06.482Z,987
2023-03-26T18:05:25.018Z,988
2023-03-26T18:34:38.485Z,987
2023-03-26T19:03:52.189Z,987
2023-03-26T19:33:14.446Z,987
2023-03-26T20:01:51.734Z,987
2023-03-26T20:31:04.488Z,987
2023-03-26T21:00:16.828Z,987
2023-03-26T21:29:38.493Z,987
2023-03-26T21:58:55.255Z,988
2023-03-26T22:28:13.878Z,988
2023-03-26T22:57:33.617Z,989
2023-03-26T23:26:52.059Z,989
2023-03-26T23:56:09.675Z,990
